Latest Weather Observations for Point Stuart

IDD60801

Issued at 10:51 pm CST Monday 6 February 2023 (issued every 10 minutes, with the page automatically refreshed every 10 minutes)

About weather observations | Map of weather stations | Latest weather observations for NT | Other Formats
Station Details ID: 014254 Name: POINT STUART Lat: -12.24 Lon: 131.88 Height: 1.0 m
Data from the previous 72 hours. | See also: Recent months at Point Stuart
Date/Time
CST
Temp
°C
App
Temp
°C
Dew
Point
°C
Rel
Hum
%
Delta-T
°C
Wind Press
QNH
hPa
Press
MSL
hPa
Rain since
9am
mm
Dir  Spd
km/h
Gust
km/h
Spd
kts
Gust
kts
06/10:30pm 28.6 31.7 24.8 80 2.7 WNW 17 24 9 13 1007.2 1007.2 0.0
06/10:00pm 28.7 31.5 25.3 82 2.4 WNW 20 30 11 16 1006.9 1006.9 0.0
06/09:30pm 28.7 31.7 25.3 82 2.4 WNW 19 26 10 14 1006.5 1006.5 0.0
06/09:00pm 28.7 31.7 25.3 82 2.4 WNW 19 26 10 14 1006.4 1006.4 0.0
06/08:30pm 28.6 32.0 25.2 82 2.4 WNW 17 22 9 12 1006.2 1006.2 0.0
06/08:00pm 28.6 32.2 25.6 84 2.1 NW 17 22 9 12 1006.0 1006.0 0.0
06/07:30pm 28.3 31.7 24.1 78 2.9 NW 13 17 7 9 1005.8 1005.8 0.0
06/07:00pm 29.1 33.4 24.2 75 3.4 NNW 9 13 5 7 1005.3 1005.3 0.0
06/06:30pm 30.7 34.9 24.8 71 4.1 NNW 11 17 6 9 1005.1 1005.1 0.0
06/06:00pm 31.4 36.0 24.8 68 4.6 NNW 9 17 5 9 1004.8 1004.8 0.0
06/05:30pm 31.5 36.2 24.9 68 4.7 NNW 9 17 5 9 1004.5 1004.5 0.0
06/05:00pm 32.8 38.1 25.9 67 4.9 NNW 9 17 5 9 1004.4 1004.4 0.0
06/04:30pm 32.2 37.5 25.8 69 4.6 NNW 9 15 5 8 1004.2 1004.2 0.0
06/04:00pm 31.8 37.5 26.4 73 3.9 NNW 9 13 5 7 1004.5 1004.5 0.0
06/03:30pm 32.2 38.1 26.7 72 4.0 NW 9 17 5 9 1004.8 1004.8 0.0
06/03:00pm 31.5 35.9 24.4 66 5.0 WSW 9 11 5 6 1005.1 1005.1 0.0
06/02:30pm 31.7 36.7 26.0 72 4.1 WNW 11 15 6 8 1005.2 1005.2 0.0
06/02:00pm 30.7 36.1 26.6 79 2.9 W 11 15 6 8 1005.6 1005.6 0.0
06/01:30pm 30.8 35.5 26.7 79 3.0 W 15 20 8 11 1006.1 1006.1 0.0
06/01:00pm 30.0 34.9 26.4 81 2.6 W 13 20 7 11 1006.5 1006.5 0.0
06/12:30pm 30.7 34.7 26.2 77 3.2 WNW 17 24 9 13 1006.8 1006.8 0.0
06/12:00pm 31.1 35.8 26.1 75 3.6 NW 13 22 7 12 1007.2 1007.2 0.0
06/11:30am 30.7 35.7 26.0 76 3.4 WNW 11 19 6 10 1007.5 1007.5 0.0
06/11:00am 30.4 35.4 26.6 80 2.7 WNW 13 19 7 10 1007.7 1007.7 0.0
06/10:30am 29.9 34.0 25.2 76 3.3 W 13 17 7 9 1007.8 1007.8 0.0
06/10:00am 29.6 34.0 25.6 79 2.8 WNW 13 20 7 11 1008.0 1008.0 0.0
06/09:30am 28.9 34.0 25.5 82 2.4 WNW 9 15 5 8 1008.0 1008.0 0.0
06/09:00am 28.4 33.7 25.2 83 2.2 WNW 7 13 4 7 1007.8 1007.8 24.8
06/08:30am 28.2 33.1 25.2 84 2.1 WNW 9 11 5 6 1007.5 1007.5 24.8
06/08:00am 27.4 33.9 25.0 87 1.7 CALM 0 7 0 4 1007.2 1007.2 24.8
06/07:30am 26.0 32.6 25.3 96 0.5 CALM 0 0 0 0 1007.0 1007.0 24.8
06/07:00am 24.5 30.3 24.0 97 0.3 CALM 0 0 0 0 1006.6 1006.6 24.8
06/06:30am 24.2 29.8 23.5 96 0.5 CALM 0 0 0 0 1006.3 1006.3 24.8
06/06:00am 24.3 28.8 23.6 96 0.5 NNW 6 6 3 3 1006.0 1006.0 24.8
06/05:30am 24.6 29.1 23.9 96 0.5 NW 7 9 4 5 1005.9 1005.9 24.8
06/05:00am 24.9 29.7 24.4 97 0.3 NNW 7 11 4 6 1005.8 1005.8 24.6
06/04:30am 25.0 31.1 24.5 97 0.3 CALM 0 0 0 0 1005.9 1005.9 22.2
06/04:00am 24.9 31.0 24.4 97 0.3 CALM 0 0 0 0 1005.7 1005.7 22.2
06/03:30am 24.7 29.8 24.0 96 0.5 ENE 4 9 2 5 1005.5 1005.5 22.2
06/03:00am 25.0 29.6 24.1 95 0.6 S 7 11 4 6 1006.0 1006.0 20.6
06/02:30am 24.8 29.3 23.9 95 0.6 NE 7 9 4 5 1006.0 1006.0 19.8
06/02:00am 24.7 28.7 23.7 94 0.7 NNE 9 11 5 6 1006.2 1006.2 19.8
06/01:30am 25.3 30.0 24.3 94 0.7 NE 7 13 4 7 1006.6 1006.6 19.8
06/01:00am 24.7 29.1 23.8 95 0.6 NNW 7 9 4 5 1006.5 1006.5 19.8
06/12:30am 24.7 26.3 23.8 95 0.6 WNW 22 30 12 16 1006.5 1006.5 19.6
06/12:00am 25.1 27.9 23.7 92 1.0 WNW 15 19 8 10 1007.1 1007.1 18.6
 
Date/Time
CST
Temp
°C
App
Temp
°C
Dew
Point
°C
Rel
Hum
%
Delta-T
°C
Wind Press
QNH
hPa
Press
MSL
hPa
Rain since
9am
mm
Dir  Spd
km/h
Gust
km/h
Spd
kts
Gust
kts
05/11:30pm 26.8 32.7 25.9 95 0.6 W 6 7 3 4 1007.1 1007.1 17.8
05/11:00pm 26.5 33.3 25.5 94 0.7 CALM 0 0 0 0 1006.9 1006.9 17.8
05/10:30pm 26.4 33.1 25.4 94 0.7 CALM 0 6 0 3 1006.7 1006.7 17.8
05/10:00pm 26.3 31.4 24.9 92 1.0 NNW 7 11 4 6 1006.4 1006.4 17.8
05/09:30pm 26.3 31.2 24.7 91 1.1 NNW 7 13 4 7 1006.1 1006.1 17.8
05/09:00pm 26.2 31.2 24.8 92 1.0 N 7 11 4 6 1005.9 1005.9 17.8
05/08:30pm 25.9 30.9 24.5 92 1.0 N 6 11 3 6 1005.9 1005.9 17.8
05/08:00pm 25.9 30.2 24.3 91 1.1 NNE 9 13 5 7 1005.3 1005.3 17.8
05/07:30pm 25.6 29.9 24.2 92 1.0 NE 9 13 5 7 1004.8 1004.8 17.8
05/07:00pm 25.3 29.1 24.1 93 0.8 E 11 13 6 7 1004.5 1004.5 17.8
05/06:30pm 24.6 28.8 23.4 93 0.8 N 7 13 4 7 1004.1 1004.1 10.8
05/06:00pm 23.3 23.4 21.9 92 0.9 W 24 33 13 18 1004.5 1004.5 10.2
05/05:52pm 23.0 21.7 21.3 90 1.1 WSW 30 39 16 21 1004.6 1004.6 10.2
05/05:39pm 22.7 20.8 21.0 90 1.1 SSW 32 46 17 25 1005.0 1005.0 8.4
05/05:33pm 24.5 24.7 22.8 90 1.1 SSE 26 46 14 25 1004.8 1004.8 3.8
05/05:30pm 23.9 22.4 21.8 88 1.4 SSE 32 54 17 29 1004.9 1004.9 1.6
05/05:20pm 25.7 25.8 21.1 76 3.0 SW 22 54 12 29 1004.4 1004.4 0.2
05/05:19pm 26.5 26.9 21.0 72 3.6 WSW 20 46 11 25 1004.4 1004.4 0.2
05/05:00pm 30.1 33.1 24.7 73 3.8 NW 17 22 9 12 1003.3 1003.3 0.2
05/04:30pm 31.7 36.0 25.5 69 4.4 NW 13 19 7 10 1003.2 1003.2 0.2
05/04:00pm 31.5 35.9 24.4 66 5.0 NNW 9 15 5 8 1003.4 1003.4 0.2
05/03:30pm 31.8 37.1 25.2 68 4.7 N 7 13 4 7 1003.6 1003.6 0.2
05/03:00pm 31.4 36.1 25.0 69 4.5 NNE 9 15 5 8 1003.8 1003.8 0.2
05/02:30pm 31.6 35.8 24.7 67 4.9 NNE 11 15 6 8 1003.9 1003.9 0.2
05/02:00pm 31.5 36.2 24.9 68 4.6 NNE 9 15 5 8 1004.2 1004.2 0.2
05/01:30pm 30.9 35.5 25.3 72 4.0 NE 11 17 6 9 1004.5 1004.5 0.2
05/01:00pm 30.1 33.8 24.5 72 3.9 NE 13 19 7 10 1005.1 1005.1 0.2
05/12:30pm 30.5 35.6 26.2 78 3.1 ENE 11 19 6 10 1005.3 1005.3 0.2
05/12:00pm 29.9 33.8 24.8 74 3.6 E 13 19 7 10 1005.6 1005.6 0.2
05/11:30am 29.7 33.8 24.6 74 3.6 E 11 17 6 9 1005.9 1005.9 0.2
05/11:00am 29.8 34.1 24.9 75 3.4 E 11 17 6 9 1006.2 1006.2 0.2
05/10:30am 28.9 34.3 25.1 80 2.7 SSE 6 11 3 6 1006.5 1006.5 0.0
05/10:00am 28.0 32.2 24.8 83 2.2 SSW 11 15 6 8 1006.4 1006.4 0.0
05/09:30am 27.1 31.0 24.9 88 1.5 S 13 19 7 10 1006.4 1006.4 0.0
05/09:00am 26.2 29.3 24.2 89 1.4 SSE 15 20 8 11 1006.4 1006.4 3.2
05/08:30am 26.6 31.7 24.6 89 1.4 ESE 6 9 3 5 1005.9 1005.9 3.2
05/08:00am 25.8 30.2 24.4 92 1.0 SE 9 13 5 7 1006.1 1006.1 3.2
05/07:30am 25.3 29.4 23.9 92 1.0 SE 9 13 5 7 1006.0 1006.0 3.2
05/07:00am 25.0 28.1 23.6 92 1.0 ESE 13 17 7 9 1005.8 1005.8 3.2
05/06:30am 24.9 28.0 23.5 92 1.0 ESE 13 17 7 9 1005.3 1005.3 3.2
05/06:00am 24.9 28.5 23.7 93 0.8 ESE 11 13 6 7 1005.0 1005.0 3.2
05/05:30am 25.0 28.1 23.6 92 1.0 SE 13 15 7 8 1004.8 1004.8 3.2
05/05:00am 24.8 28.3 23.6 93 0.8 ESE 11 15 6 8 1004.4 1004.4 3.2
05/04:30am 24.6 27.4 23.6 94 0.7 SE 15 22 8 12 1004.2 1004.2 3.2
05/04:00am 25.1 29.9 24.2 95 0.6 SW 6 7 3 4 1003.8 1003.8 3.2
05/03:30am 24.9 29.5 24.2 96 0.5 SE 7 9 4 5 1003.7 1003.7 3.2
05/03:00am 24.6 29.1 23.7 95 0.6 ESE 6 7 3 4 1003.9 1003.9 3.2
05/02:30am 24.4 28.8 23.5 95 0.6 SE 6 9 3 5 1004.2 1004.2 3.2
05/02:00am 24.3 28.6 23.3 94 0.7 ESE 6 7 3 4 1004.6 1004.6 3.2
05/01:30am 24.4 28.2 23.4 94 0.7 ESE 9 13 5 7 1005.0 1005.0 3.2
05/01:00am 24.4 27.7 23.2 93 0.8 ESE 11 17 6 9 1005.5 1005.5 3.2
05/12:30am 24.3 27.7 23.3 94 0.7 SE 11 17 6 9 1005.9 1005.9 3.2
05/12:00am 24.4 28.2 23.4 94 0.7 SE 9 13 5 7 1006.2 1006.2 3.2
 
Date/Time
CST
Temp
°C
App
Temp
°C
Dew
Point
°C
Rel
Hum
%
Delta-T
°C
Wind Press
QNH
hPa
Press
MSL
hPa
Rain since
9am
mm
Dir  Spd
km/h
Gust
km/h
Spd
kts
Gust
kts
04/11:30pm 24.5 27.6 23.5 94 0.7 SE 13 17 7 9 1006.8 1006.8 3.2
04/11:00pm 24.6 28.2 23.7 95 0.6 SE 11 13 6 7 1007.1 1007.1 3.2
04/10:30pm 24.6 27.9 23.9 96 0.5 ESE 13 17 7 9 1007.4 1007.4 3.2
04/10:00pm 24.3 27.7 23.4 95 0.6 ESE 11 17 6 9 1007.3 1007.3 3.2
04/09:30pm 24.3 27.3 23.3 94 0.7 SE 13 17 7 9 1007.1 1007.1 3.2
04/09:00pm 24.4 27.4 23.4 94 0.7 SE 13 17 7 9 1007.0 1007.0 2.8
04/08:30pm 24.2 27.3 23.5 96 0.5 SE 13 19 7 10 1006.6 1006.6 2.8
04/08:00pm 24.0 25.6 23.3 96 0.5 SE 20 28 11 15 1005.9 1005.9 2.8
04/07:30pm 24.2 26.0 23.3 95 0.6 SE 19 24 10 13 1005.8 1005.8 2.6
04/07:00pm 24.6 26.3 23.4 93 0.8 SSE 20 30 11 16 1005.4 1005.4 0.8
04/06:30pm 26.2 25.8 23.1 83 2.1 SE 30 44 16 24 1004.4 1004.4 0.0
04/06:22pm 27.0 28.5 23.0 79 2.7 S 20 39 11 21 1004.1 1004.1 0.0
04/06:00pm 30.8 35.1 24.2 68 4.6 NNW 9 15 5 8 1003.4 1003.4 0.0
04/05:30pm 31.3 36.3 25.4 71 4.2 NNW 9 17 5 9 1003.1 1003.1 0.0
04/05:00pm 31.2 35.3 25.8 73 3.8 NW 15 24 8 13 1002.8 1002.8 0.0
04/04:30pm 31.8 36.4 25.9 71 4.2 NW 13 20 7 11 1002.3 1002.3 0.0
04/04:00pm 31.8 35.2 25.2 68 4.7 NW 17 24 9 13 1002.3 1002.3 0.0
04/03:30pm 32.0 36.0 25.6 69 4.6 NW 15 20 8 11 1002.6 1002.6 0.0
04/03:00pm 32.2 35.8 25.0 65 5.1 NNW 15 20 8 11 1003.0 1003.0 0.0
04/02:30pm 31.8 36.2 25.6 69 4.4 NW 13 20 7 11 1003.5 1003.5 0.0
04/02:00pm 31.5 35.6 24.6 67 4.8 NNW 11 19 6 10 1003.7 1003.7 0.0
04/01:30pm 31.8 36.3 25.2 68 4.7 NNW 11 19 6 10 1004.2 1004.2 0.0
04/01:00pm 31.4 36.2 25.7 71 4.0 NNW 11 17 6 9 1004.6 1004.6 0.0
04/12:30pm 31.4 36.0 24.8 68 4.6 NW 9 17 5 9 1005.2 1005.2 0.0
04/12:00pm 30.5 35.8 25.8 76 3.3 NW 9 15 5 8 1005.9 1005.9 0.0
04/11:30am 30.1 35.2 24.9 73 3.7 NW 7 11 4 6 1006.1 1006.1 0.0
04/11:00am 30.1 35.7 25.4 76 3.3 N 6 9 3 5 1006.1 1006.1 0.0
04/10:30am 30.0 35.9 25.3 76 3.3 SE 4 9 2 5 1006.2 1006.2 0.0
04/10:00am 28.7 34.0 24.3 77 3.1 SW 4 7 2 4 1006.1 1006.1 0.0
04/09:30am 28.2 32.9 24.0 78 2.9 SW 6 11 3 6 1006.2 1006.2 0.0
04/09:00am 27.5 31.3 23.5 79 2.7 S 9 13 5 7 1005.9 1005.9 0.6
04/08:30am 27.4 31.2 23.4 79 2.7 SSW 9 11 5 6 1005.6 1005.6 0.6
04/08:00am 26.5 31.3 24.2 87 1.6 S 6 7 3 4 1005.3 1005.3 0.6
04/07:30am 25.8 30.2 23.5 87 1.6 SSW 6 9 3 5 1005.1 1005.1 0.6
04/07:00am 25.6 29.3 23.3 87 1.6 S 9 11 5 6 1004.8 1004.8 0.6
04/06:30am 26.5 28.2 22.3 78 2.8 W 17 22 9 12 1004.9 1004.9 0.6
04/06:00am 25.6 29.6 23.8 90 1.2 WSW 9 11 5 6 1004.7 1004.7 0.6
04/05:30am 26.8 29.8 24.6 88 1.5 W 17 22 9 12 1004.5 1004.5 0.6
04/05:00am 26.9 28.9 24.5 87 1.7 WNW 22 32 12 17 1004.3 1004.3 0.6
04/04:30am 26.3 28.7 24.2 88 1.5 W 19 26 10 14 1004.1 1004.1 0.6
04/04:00am 27.3 29.1 24.2 83 2.1 WNW 22 33 12 18 1003.8 1003.8 0.6
04/03:30am 27.7 29.0 24.7 84 2.1 WNW 26 35 14 19 1003.7 1003.7 0.6
04/03:00am 27.7 29.3 24.5 83 2.2 WNW 24 33 13 18 1003.6 1003.6 0.6
04/02:30am 27.5 30.3 25.3 88 1.5 NW 20 30 11 16 1003.6 1003.6 0.6
04/02:00am 27.7 30.9 25.5 88 1.5 WNW 19 24 10 13 1003.8 1003.8 0.6
04/01:30am 27.7 31.2 25.5 88 1.6 WNW 17 24 9 13 1004.1 1004.1 0.6
04/01:00am 27.8 31.2 25.2 86 1.8 WNW 17 22 9 12 1004.5 1004.5 0.6
04/12:30am 27.9 30.7 24.9 84 2.1 WNW 19 26 10 14 1004.9 1004.9 0.6
04/12:00am 27.1 30.3 24.9 88 1.5 W 17 20 9 11 1005.3 1005.3 0.6
 
Date/Time
CST
Temp
°C
App
Temp
°C
Dew
Point
°C
Rel
Hum
%
Delta-T
°C
Wind Press
QNH
hPa
Press
MSL
hPa
Rain since
9am
mm
Dir  Spd
km/h
Gust
km/h
Spd
kts
Gust
kts
03/11:30pm 27.0 30.9 24.8 88 1.5 WSW 13 17 7 9 1005.9 1005.9 0.6
03/11:00pm 27.3 31.0 24.6 85 1.9 WSW 13 17 7 9 1005.7 1005.7 0.6

Other formats

Comma delimited format used in spreadsheet applications
http://www.bom.gov.au/fwo/IDD60801/IDD60801.94127.axf

JavaScript Object Notation format (JSON) in row-major order
http://www.bom.gov.au/fwo/IDD60801/IDD60801.94127.json

Data quality

Most of these data are generated automatically and are frequently updated. Quality checks on data are not normally performed. It is possible for incorrect values to appear. Refer to information at About Latest Weather Observations and please check the disclaimer before using these data.